createdAt,value
2022-08-12T00:01:13.430Z,96718.00
2022-08-12T00:04:01.005Z,96721.19
2022-08-12T00:06:49.232Z,96709.31
2022-08-12T00:09:35.527Z,96712.28
2022-08-12T00:12:22.399Z,96712.59
2022-08-12T00:15:08.923Z,96708.09
2022-08-12T00:17:55.644Z,96704.81
2022-08-12T00:20:43.628Z,96701.88
2022-08-12T00:23:32.076Z,96691.66
2022-08-12T00:26:23.448Z,96692.66
2022-08-12T00:29:12.832Z,96693.06
2022-08-12T00:32:00.091Z,96699.69
2022-08-12T00:34:48.456Z,96694.88
2022-08-12T00:37:37.995Z,96694.47
2022-08-12T00:40:26.246Z,96695.59
2022-08-12T00:42:55.276Z,96687.53
2022-08-12T00:45:24.628Z,96695.19
2022-08-12T00:47:54.532Z,96696.63
2022-08-12T00:50:24.348Z,96692.13
2022-08-12T00:52:54.494Z,96698.44
2022-08-12T00:55:23.320Z,96694.88
2022-08-12T00:57:52.512Z,96694.38
2022-08-12T01:00:24.381Z,96696.81
2022-08-12T01:02:57.736Z,96692.13
2022-08-12T01:05:44.699Z,96688.13
2022-08-12T01:08:32.518Z,96696.09
2022-08-12T01:11:19.174Z,96689.47
2022-08-12T01:13:50.669Z,96687.41
2022-08-12T01:16:23.050Z,96695.78
2022-08-12T01:18:53.690Z,96688.84
2022-08-12T01:21:44.560Z,96686.31
2022-08-12T01:24:36.689Z,96693.72
2022-08-12T01:27:11.629Z,96685.78
2022-08-12T01:29:45.805Z,96679.84
2022-08-12T01:32:16.705Z,96681.28
2022-08-12T01:34:51.240Z,96679.97
2022-08-12T01:37:23.794Z,96684.34
2022-08-12T01:40:34.259Z,96684.72
2022-08-12T01:42:48.492Z,96686.03
2022-08-12T01:45:25.168Z,96674.28
2022-08-12T01:48:12.927Z,96674.16
2022-08-12T01:50:52.247Z,96660.84
2022-08-12T01:53:26.991Z,96665.63
2022-08-12T01:55:57.610Z,96661.00
2022-08-12T01:58:51.203Z,96662.19
2022-08-12T02:01:25.060Z,96653.72
2022-08-12T02:04:23.171Z,96653.50
2022-08-12T02:07:20.237Z,96662.97
2022-08-12T02:10:49.029Z,96650.19
2022-08-12T02:13:15.476Z,96654.22
2022-08-12T02:16:11.526Z,96645.78
2022-08-12T02:18:49.427Z,96653.31
2022-08-12T02:21:27.466Z,96641.56
2022-08-12T02:23:56.271Z,96647.66
2022-08-12T02:26:30.601Z,96645.72
2022-08-12T02:28:59.962Z,96646.59
2022-08-12T02:31:31.930Z,96645.03
2022-08-12T02:34:00.880Z,96656.63
2022-08-12T02:36:33.322Z,96651.78
2022-08-12T02:39:05.857Z,96648.78
2022-08-12T02:41:37.965Z,96656.00
2022-08-12T02:44:11.216Z,96648.94
2022-08-12T02:46:43.027Z,96647.88
2022-08-12T02:49:17.286Z,96644.72
2022-08-12T02:51:46.535Z,96644.50
2022-08-12T02:54:15.785Z,96647.31
2022-08-12T02:56:50.607Z,96649.81
2022-08-12T02:59:24.348Z,96648.47
2022-08-12T03:01:56.741Z,96647.94
2022-08-12T03:04:32.032Z,96646.97
2022-08-12T03:07:11.116Z,96639.84
2022-08-12T03:10:04.368Z,96638.25
2022-08-12T03:12:48.926Z,96632.47
2022-08-12T03:15:22.492Z,96622.28
2022-08-12T03:18:24.815Z,96630.00
2022-08-12T03:20:47.402Z,96631.88
2022-08-12T03:23:29.068Z,96621.19
2022-08-12T03:26:02.461Z,96614.91
2022-08-12T03:28:52.779Z,96614.72
2022-08-12T03:31:24.938Z,96616.41
2022-08-12T03:34:02.198Z,96620.78
2022-08-12T03:36:35.723Z,96615.34
2022-08-12T03:39:36.475Z,96619.22
2022-08-12T03:42:17.993Z,96619.31
2022-08-12T03:45:14.631Z,96615.81
2022-08-12T03:48:06.894Z,96614.47
2022-08-12T03:50:54.379Z,96621.03
2022-08-12T03:53:45.422Z,96627.72
2022-08-12T03:56:31.633Z,96632.66
2022-08-12T03:59:20.146Z,96630.78
2022-08-12T04:01:57.510Z,96634.91
2022-08-12T04:04:29.829Z,96628.63
2022-08-12T04:07:00.190Z,96636.88
2022-08-12T04:09:30.367Z,96634.91
2022-08-12T04:12:16.410Z,96635.72
2022-08-12T04:14:45.898Z,96639.56
2022-08-12T04:17:16.241Z,96634.34
2022-08-12T04:19:48.020Z,96638.72
2022-08-12T04:22:18.831Z,96627.47
2022-08-12T04:24:50.598Z,96635.00
2022-08-12T04:27:20.111Z,96634.25
2022-08-12T04:30:21.401Z,96637.06
2022-08-12T04:32:43.740Z,96643.34
2022-08-12T04:35:13.617Z,96632.13
2022-08-12T04:37:59.227Z,96629.97
2022-08-12T04:40:32.624Z,96636.56
2022-08-12T04:43:02.475Z,96631.88
2022-08-12T04:45:31.607Z,96634.63
2022-08-12T04:48:01.955Z,96642.31
2022-08-12T04:50:35.975Z,96647.03
2022-08-12T04:53:09.090Z,96634.22
2022-08-12T04:55:39.396Z,96644.81
2022-08-12T04:58:08.869Z,96643.97
2022-08-12T05:00:39.293Z,96648.38
2022-08-12T05:03:08.484Z,96637.13
2022-08-12T05:05:41.241Z,96633.56
2022-08-12T05:08:16.165Z,96634.94
2022-08-12T05:10:45.907Z,96639.00
2022-08-12T05:13:18.284Z,96641.47
2022-08-12T05:16:03.818Z,96648.56
2022-08-12T05:18:35.427Z,96647.47
2022-08-12T05:21:09.555Z,96648.84
2022-08-12T05:23:40.835Z,96640.31
2022-08-12T05:26:10.285Z,96658.56
2022-08-12T05:28:39.086Z,96641.63
2022-08-12T05:31:07.962Z,96653.13
2022-08-12T05:33:40.149Z,96666.81
2022-08-12T05:36:10.207Z,96665.66
2022-08-12T05:38:59.185Z,96668.94
2022-08-12T05:41:30.601Z,96665.88
2022-08-12T05:44:02.140Z,96673.25
2022-08-12T05:46:31.776Z,96666.03
2022-08-12T05:49:01.282Z,96674.78
2022-08-12T05:51:41.156Z,96673.03
2022-08-12T05:54:12.963Z,96679.31
2022-08-12T05:56:42.000Z,96675.19
2022-08-12T05:59:12.612Z,96678.97
2022-08-12T06:02:12.106Z,96678.41
2022-08-12T06:04:33.762Z,96665.50
2022-08-12T06:07:02.787Z,96664.91
2022-08-12T06:09:52.990Z,96659.66
2022-08-12T06:12:23.678Z,96667.56
2022-08-12T06:14:56.113Z,96668.88
2022-08-12T06:17:24.552Z,96674.53
2022-08-12T06:20:22.848Z,96679.41
2022-08-12T06:22:42.464Z,96678.75
2022-08-12T06:25:22.035Z,96674.84
2022-08-12T06:28:07.333Z,96667.06
2022-08-12T06:30:39.141Z,96671.06
2022-08-12T06:34:00.688Z,96680.34
2022-08-12T06:35:59.201Z,96674.59
2022-08-12T06:38:29.259Z,96666.81
2022-08-12T06:41:19.839Z,96665.22
2022-08-12T06:44:05.531Z,96669.00
2022-08-12T06:46:39.385Z,96672.41
2022-08-12T06:49:10.619Z,96660.75
2022-08-12T06:51:39.185Z,96662.81
2022-08-12T06:54:10.570Z,96662.44
2022-08-12T06:57:03.194Z,96671.13
2022-08-12T06:59:29.124Z,96667.81
2022-08-12T07:01:57.563Z,96684.22
2022-08-12T07:04:41.535Z,96674.25
2022-08-12T07:07:15.348Z,96682.94
2022-08-12T07:10:04.583Z,96687.44
2022-08-12T07:12:35.971Z,96679.34
2022-08-12T07:15:06.162Z,96684.19
2022-08-12T07:17:37.452Z,96681.56
2022-08-12T07:20:29.803Z,96683.09
2022-08-12T07:23:02.451Z,96679.97
2022-08-12T07:25:40.350Z,96682.28
2022-08-12T07:28:16.130Z,96683.03
2022-08-12T07:30:49.006Z,96685.88
2022-08-12T07:33:19.149Z,96678.47
2022-08-12T07:35:48.280Z,96679.06
2022-08-12T07:38:29.831Z,96682.75
2022-08-12T07:41:03.532Z,96678.75
2022-08-12T07:43:35.503Z,96666.84
2022-08-12T07:46:06.328Z,96682.06
2022-08-12T07:48:40.708Z,96697.28
2022-08-12T07:51:09.312Z,96691.75
2022-08-12T07:53:59.874Z,96701.53
2022-08-12T07:56:28.552Z,96697.84
2022-08-12T07:58:59.260Z,96687.69
2022-08-12T08:01:29.033Z,96699.72
2022-08-12T08:04:19.151Z,96692.75
2022-08-12T08:06:50.185Z,96692.69
2022-08-12T08:09:22.298Z,96694.91
2022-08-12T08:12:09.455Z,96693.34
2022-08-12T08:14:51.991Z,96697.53
2022-08-12T08:17:20.447Z,96698.03
2022-08-12T08:20:02.991Z,96688.31
2022-08-12T08:22:40.741Z,96693.06
2022-08-12T08:25:34.362Z,96685.03
2022-08-12T08:28:02.868Z,96678.50
2022-08-12T08:30:34.414Z,96694.84
2022-08-12T08:33:02.920Z,96686.63
2022-08-12T08:35:49.730Z,96693.13
2022-08-12T08:38:32.666Z,96691.88
2022-08-12T08:42:18.912Z,96696.06
2022-08-12T08:44:12.429Z,96695.44
2022-08-12T08:46:44.430Z,96694.78
2022-08-12T08:49:13.188Z,96696.41
2022-08-12T08:51:43.106Z,96692.53
2022-08-12T08:54:12.651Z,96691.06
2022-08-12T08:56:44.277Z,96695.69
2022-08-12T08:59:13.615Z,96695.38
2022-08-12T09:01:44.943Z,96697.81
2022-08-12T09:05:07.790Z,96696.19
2022-08-12T09:07:16.998Z,96697.53
2022-08-12T09:10:03.196Z,96692.81
2022-08-12T09:12:51.583Z,96695.28
2022-08-12T09:15:35.113Z,96691.88
2022-08-12T09:18:09.033Z,96687.00
2022-08-12T09:20:39.735Z,96691.72
2022-08-12T09:28:53.189Z,96699.53
2022-08-12T09:32:04.045Z,96676.19
2022-08-12T09:34:28.937Z,96698.03
2022-08-12T09:37:19.233Z,96682.22
2022-08-12T09:40:03.241Z,96700.00
2022-08-12T09:43:16.952Z,96688.16
2022-08-12T09:46:11.051Z,96686.38
2022-08-12T09:48:39.858Z,96692.41
2022-08-12T09:51:16.679Z,96693.72
2022-08-12T09:54:05.629Z,96691.84
2022-08-12T09:57:02.113Z,96685.78
2022-08-12T10:00:13.176Z,96679.03
2022-08-12T10:02:44.517Z,96680.94
2022-08-12T10:05:13.445Z,96676.78
2022-08-12T10:07:47.251Z,96672.53
2022-08-12T10:10:24.199Z,96670.69
2022-08-12T10:13:35.678Z,96682.16
2022-08-12T10:16:06.631Z,96674.00
2022-08-12T10:18:51.570Z,96675.25
2022-08-12T10:21:24.237Z,96675.84
2022-08-12T10:24:08.551Z,96674.72
2022-08-12T10:26:56.808Z,96669.44
2022-08-12T10:30:03.333Z,96659.13
2022-08-12T10:32:43.939Z,96656.78
2022-08-12T10:35:16.983Z,96658.19
2022-08-12T10:38:34.604Z,96650.03
2022-08-12T10:40:59.627Z,96645.25
2022-08-12T10:43:54.297Z,96659.31
2022-08-12T10:46:30.297Z,96653.97
2022-08-12T10:49:06.447Z,96662.53
2022-08-12T10:52:32.423Z,96651.13
2022-08-12T10:54:42.882Z,96645.66
2022-08-12T10:57:17.902Z,96647.78
2022-08-12T11:00:35.452Z,96649.88
2022-08-12T11:04:23.738Z,96648.53
2022-08-12T11:07:07.544Z,96642.75
2022-08-12T11:08:43.626Z,96628.81
2022-08-12T11:11:18.217Z,96632.91
2022-08-12T11:14:47.982Z,96631.00
2022-08-12T11:17:44.010Z,96632.91
2022-08-12T11:19:47.390Z,96618.69
2022-08-12T11:22:18.003Z,96616.44
2022-08-12T11:24:51.328Z,96632.59
2022-08-12T11:27:21.284Z,96628.81
2022-08-12T11:30:02.529Z,96630.03
2022-08-12T11:32:39.236Z,96617.78
2022-08-12T11:35:11.474Z,96613.22
2022-08-12T11:37:59.271Z,96608.78
2022-08-12T11:40:29.043Z,96609.28
2022-08-12T11:43:18.987Z,96610.81
2022-08-12T11:45:53.207Z,96618.59
2022-08-12T11:48:27.087Z,96605.13
2022-08-12T11:50:57.066Z,96612.38
2022-08-12T11:53:57.497Z,96604.31
2022-08-12T11:56:14.749Z,96599.41
2022-08-12T12:01:58.750Z,96601.25
2022-08-12T12:04:28.749Z,96597.84
2022-08-12T12:07:07.267Z,96601.66
2022-08-12T12:09:52.658Z,96603.81
2022-08-12T12:12:25.161Z,96592.31
2022-08-12T12:14:54.504Z,96592.31
2022-08-12T12:17:26.213Z,96591.78
2022-08-12T12:20:09.948Z,96575.56
2022-08-12T12:22:41.545Z,96588.56
2022-08-12T12:25:14.478Z,96579.34
2022-08-12T12:28:04.010Z,96580.28
2022-08-12T12:30:34.724Z,96575.25
2022-08-12T12:33:06.199Z,96571.50
2022-08-12T12:36:17.149Z,96580.22
2022-08-12T12:38:25.672Z,96582.00
2022-08-12T12:40:54.817Z,96564.19
2022-08-12T12:43:28.700Z,96579.50
2022-08-12T12:46:12.225Z,96566.97
2022-08-12T12:48:44.695Z,96562.22
2022-08-12T12:51:48.927Z,96565.91
2022-08-12T12:54:10.490Z,96564.03
2022-08-12T12:56:42.321Z,96557.63
2022-08-12T12:59:33.675Z,96551.75
2022-08-12T13:02:08.249Z,96550.00
2022-08-12T13:04:39.058Z,96550.97
2022-08-12T13:07:08.001Z,96535.75
2022-08-12T13:09:37.113Z,96547.72
2022-08-12T13:12:10.801Z,96546.34
2022-08-12T13:14:40.357Z,96559.41
2022-08-12T13:17:14.725Z,96544.78
2022-08-12T13:19:49.999Z,96546.06
2022-08-12T13:22:23.839Z,96545.81
2022-08-12T13:24:56.338Z,96550.94
2022-08-12T13:27:34.432Z,96545.88
2022-08-12T13:30:11.071Z,96540.94
2022-08-12T13:32:42.545Z,96536.31
2022-08-12T13:35:20.229Z,96529.66
2022-08-12T13:38:03.350Z,96537.75
2022-08-12T13:40:34.306Z,96542.75
2022-08-12T13:43:07.234Z,96543.38
2022-08-12T13:45:36.710Z,96550.28
2022-08-12T13:48:07.776Z,96556.72
2022-08-12T13:50:39.539Z,96557.47
2022-08-12T13:53:24.158Z,96562.50
2022-08-12T13:56:01.434Z,96565.63
2022-08-12T13:58:34.657Z,96575.34
2022-08-12T14:01:06.551Z,96577.78
2022-08-12T14:03:50.916Z,96576.34
2022-08-12T14:06:26.043Z,96582.44
2022-08-12T14:08:59.759Z,96584.88
2022-08-12T14:11:51.291Z,96590.09
2022-08-12T14:14:31.466Z,96583.44
2022-08-12T14:17:05.129Z,96572.28
2022-08-12T14:19:39.281Z,96569.13
2022-08-12T14:22:20.312Z,96565.34
2022-08-12T14:24:49.776Z,96563.88
2022-08-12T14:28:03.301Z,96554.00
2022-08-12T14:30:15.624Z,96550.16
2022-08-12T14:32:46.075Z,96550.66
2022-08-12T14:35:15.646Z,96546.16
2022-08-12T14:37:57.474Z,96549.56
2022-08-12T14:40:29.552Z,96541.50
2022-08-12T14:42:59.660Z,96558.78
2022-08-12T14:45:37.203Z,96545.25
2022-08-12T14:48:23.356Z,96556.22
2022-08-12T14:52:10.624Z,96557.50
2022-08-12T14:55:24.793Z,96551.97
2022-08-12T14:59:56.331Z,96550.38
2022-08-12T15:02:29.589Z,96546.22
2022-08-12T15:05:01.348Z,96549.78
2022-08-12T15:07:43.719Z,96543.13
2022-08-12T15:10:32.433Z,96549.22
2022-08-12T15:13:07.556Z,96543.00
2022-08-12T15:15:43.991Z,96556.09
2022-08-12T15:18:21.744Z,96550.19
2022-08-12T15:20:54.812Z,96548.13
2022-08-12T15:23:29.200Z,96555.78
2022-08-12T15:26:05.646Z,96562.16
2022-08-12T15:28:36.318Z,96564.97
2022-08-12T15:31:21.724Z,96559.00
2022-08-12T15:33:57.209Z,96567.91
2022-08-12T15:36:53.858Z,96562.72
2022-08-12T15:39:17.806Z,96568.09
2022-08-12T15:41:49.189Z,96565.38
2022-08-12T15:44:38.535Z,96571.41
2022-08-12T15:47:08.840Z,96563.94
2022-08-12T15:49:54.292Z,96557.00
2022-08-12T15:52:28.918Z,96554.31
2022-08-12T15:55:06.094Z,96559.16
2022-08-12T15:57:53.854Z,96555.66
2022-08-12T16:00:32.718Z,96549.63
2022-08-12T16:03:05.366Z,96552.44
2022-08-12T16:06:12.068Z,96559.09
2022-08-12T16:08:27.180Z,96556.84
2022-08-12T16:10:57.620Z,96560.84
2022-08-12T16:13:32.640Z,96561.00
2022-08-12T16:16:22.771Z,96560.75
2022-08-12T16:18:58.637Z,96547.16
2022-08-12T16:21:51.737Z,96558.41
2022-08-12T16:24:19.607Z,96546.16
2022-08-12T16:26:51.295Z,96548.69
2022-08-12T16:29:38.536Z,96544.50
2022-08-12T16:32:30.992Z,96536.91
2022-08-12T16:35:00.809Z,96548.06
2022-08-12T16:38:25.014Z,96538.06
2022-08-12T16:40:23.775Z,96537.56
2022-08-12T16:42:54.344Z,96531.97
2022-08-12T16:46:05.568Z,96540.59
2022-08-12T16:48:34.605Z,96537.81
2022-08-12T16:51:09.268Z,96541.31
2022-08-12T16:53:44.829Z,96536.00
2022-08-12T16:56:17.000Z,96542.94
2022-08-12T16:58:47.014Z,96544.81
2022-08-12T17:01:19.770Z,96548.34
2022-08-12T17:04:08.537Z,96553.28
2022-08-12T17:06:41.562Z,96556.72
2022-08-12T17:09:17.092Z,96545.44
2022-08-12T17:11:49.676Z,96545.56
2022-08-12T17:14:23.224Z,96549.09
2022-08-12T17:16:56.944Z,96530.28
2022-08-12T17:20:16.908Z,96548.63
2022-08-12T17:22:21.958Z,96544.59
2022-08-12T17:24:55.725Z,96547.19
2022-08-12T17:27:30.835Z,96552.47
2022-08-12T17:30:04.152Z,96550.25
2022-08-12T17:32:37.222Z,96551.22
2022-08-12T17:35:30.014Z,96547.03
2022-08-12T17:38:11.900Z,96556.31
2022-08-12T17:40:42.284Z,96552.16
2022-08-12T17:43:57.196Z,96555.41
2022-08-12T17:46:03.102Z,96563.41
2022-08-12T17:48:38.473Z,96566.19
2022-08-12T17:51:15.744Z,96564.00
2022-08-12T17:54:10.241Z,96546.97
2022-08-12T17:56:38.071Z,96563.41
2022-08-12T17:59:12.675Z,96559.19
2022-08-12T18:01:45.656Z,96553.28
2022-08-12T18:04:21.887Z,96546.22
2022-08-12T18:06:52.861Z,96551.66
2022-08-12T18:09:36.170Z,96540.19
2022-08-12T18:12:24.295Z,96551.84
2022-08-12T18:14:58.529Z,96559.56
2022-08-12T18:17:28.839Z,96560.81
2022-08-12T18:20:05.085Z,96551.03
2022-08-12T18:22:38.625Z,96564.38
2022-08-12T18:26:12.352Z,96569.69
2022-08-12T18:28:16.680Z,96566.88
2022-08-12T18:30:52.212Z,96568.94
2022-08-12T18:33:26.031Z,96569.41
2022-08-12T18:35:57.057Z,96576.47
2022-08-12T18:38:28.346Z,96574.22
2022-08-12T18:41:21.117Z,96577.19
2022-08-12T18:44:02.625Z,96577.44
2022-08-12T18:46:48.706Z,96570.09
2022-08-12T18:49:29.760Z,96576.53
2022-08-12T18:52:05.232Z,96573.16
2022-08-12T18:54:36.236Z,96575.13
2022-08-12T18:57:16.188Z,96569.66
2022-08-12T19:00:00.936Z,96568.28
2022-08-12T19:02:40.679Z,96567.66
2022-08-12T19:05:11.826Z,96567.06
2022-08-12T19:07:57.998Z,96567.41
2022-08-12T19:10:32.132Z,96566.91
2022-08-12T19:13:24.161Z,96574.41
2022-08-12T19:15:58.108Z,96569.72
2022-08-12T19:18:31.077Z,96570.41
2022-08-12T19:21:12.049Z,96572.22
2022-08-12T19:24:07.498Z,96567.16
2022-08-12T19:26:36.746Z,96564.25
2022-08-12T19:29:07.626Z,96569.16
2022-08-12T19:31:58.318Z,96567.88
2022-08-12T19:37:26.836Z,96568.59
2022-08-12T19:40:09.872Z,96568.06
2022-08-12T19:43:00.781Z,96570.56
2022-08-12T19:45:43.491Z,96571.19
2022-08-12T19:48:19.964Z,96572.97
2022-08-12T19:50:52.475Z,96575.59
2022-08-12T19:53:23.900Z,96575.75
2022-08-12T19:55:55.104Z,96582.69
2022-08-12T19:58:24.727Z,96580.34
2022-08-12T20:00:55.037Z,96580.00
2022-08-12T20:03:38.302Z,96578.38
2022-08-12T20:06:15.585Z,96589.41
2022-08-12T20:08:49.182Z,96585.84
2022-08-12T20:12:13.854Z,96582.28
2022-08-12T20:14:19.044Z,96575.75
2022-08-12T20:16:57.169Z,96570.56
2022-08-12T20:19:52.545Z,96575.94
2022-08-12T20:22:24.565Z,96578.50
2022-08-12T20:25:01.588Z,96561.31
2022-08-12T20:28:05.157Z,96575.44
2022-08-12T20:30:37.433Z,96570.47
2022-08-12T20:33:18.718Z,96570.94
2022-08-12T20:36:14.344Z,96567.88
2022-08-12T20:38:40.666Z,96565.72
2022-08-12T20:41:17.726Z,96583.75
2022-08-12T20:43:51.920Z,96575.47
2022-08-12T20:46:22.198Z,96576.63
2022-08-12T20:48:55.368Z,96572.84
2022-08-12T20:51:28.217Z,96568.44
2022-08-12T20:54:18.460Z,96568.94
2022-08-12T20:56:48.751Z,96571.84
2022-08-12T20:59:20.360Z,96566.47
2022-08-12T21:01:54.178Z,96561.88
2022-08-12T21:04:43.950Z,96567.91
2022-08-12T21:07:13.887Z,96565.28
2022-08-12T21:09:47.185Z,96568.91
2022-08-12T21:12:31.190Z,96566.56
2022-08-12T21:15:23.789Z,96570.41
2022-08-12T21:18:11.006Z,96565.94
2022-08-12T21:20:49.960Z,96570.44
2022-08-12T21:23:21.286Z,96568.28
2022-08-12T21:25:51.191Z,96556.16
2022-08-12T21:28:21.121Z,96563.41
2022-08-12T21:31:11.024Z,96568.94
2022-08-12T21:34:06.485Z,96561.09
2022-08-12T21:36:34.107Z,96559.97
2022-08-12T21:39:19.106Z,96562.94
2022-08-12T21:41:52.746Z,96560.22
2022-08-12T21:45:45.455Z,96561.25
2022-08-12T21:47:21.609Z,96553.31
2022-08-12T21:50:03.821Z,96552.28
2022-08-12T21:52:48.827Z,96554.81
2022-08-12T21:55:20.341Z,96559.84
2022-08-12T21:57:53.627Z,96562.50
2022-08-12T22:00:32.018Z,96555.97
2022-08-12T22:04:02.279Z,96532.63
2022-08-12T22:06:31.686Z,96556.38
2022-08-12T22:09:16.199Z,96557.41
2022-08-12T22:11:56.033Z,96559.47
2022-08-12T22:14:26.802Z,96562.84
2022-08-12T22:16:57.057Z,96557.66
2022-08-12T22:19:27.247Z,96551.91
2022-08-12T22:21:58.803Z,96553.25
2022-08-12T22:24:30.834Z,96554.16
2022-08-12T22:27:16.040Z,96553.94
2022-08-12T22:30:08.491Z,96554.25
2022-08-12T22:32:41.911Z,96553.03
2022-08-12T22:35:55.977Z,96556.09
2022-08-12T22:38:25.024Z,96554.88
2022-08-12T22:40:58.377Z,96548.41
2022-08-12T22:43:59.151Z,96546.38
2022-08-12T22:46:52.591Z,96537.00
2022-08-12T22:49:37.415Z,96540.00
2022-08-12T22:52:18.543Z,96536.44
2022-08-12T22:55:00.230Z,96543.91
2022-08-12T22:57:48.937Z,96539.19
2022-08-12T23:00:27.820Z,96530.75
2022-08-12T23:03:00.432Z,96531.88
2022-08-12T23:05:56.891Z,96537.69
2022-08-12T23:08:29.911Z,96537.03
2022-08-12T23:11:00.933Z,96536.44
2022-08-12T23:13:54.905Z,96526.94
2022-08-12T23:16:31.537Z,96527.75
2022-08-12T23:19:09.747Z,96520.59
2022-08-12T23:22:05.321Z,96517.13
2022-08-12T23:24:35.163Z,96522.91
2022-08-12T23:27:22.084Z,96508.53
2022-08-12T23:30:17.524Z,96518.09
2022-08-12T23:32:40.307Z,96512.59
2022-08-12T23:35:09.455Z,96510.66
2022-08-12T23:37:53.719Z,96508.59
2022-08-12T23:40:26.021Z,96512.78
2022-08-12T23:42:55.138Z,96502.66
2022-08-12T23:45:31.360Z,96512.09
2022-08-12T23:48:03.108Z,96508.00
2022-08-12T23:50:34.471Z,96507.00
2022-08-12T23:53:06.674Z,96509.88
2022-08-12T23:55:57.246Z,96506.41
2022-08-12T23:58:28.659Z,96487.09
